Time;durP1;ratioP1;P1;durP2;ratioP2;P2;SDS_P1;SDS_P2;PMS_P1;PMS_P2;Temp;Humidity;BMP_temperature;BMP_pressure;BME280_temperature;BME280_humidity;BME280_pressure;Samples;Min_cycle;Max_cycle;Signal;HPM_P1;HPM_P2
2023/08/23 00:00:07;;;;;;;5.80;4.68;;;16.70;99.90;;;;;;5137288;27;20045;-90
2023/08/23 00:02:33;;;;;;;4.97;4.47;;;16.70;99.90;;;;;;5154687;27;20046;-84
2023/08/23 00:04:58;;;;;;;5.22;4.20;;;16.60;99.90;;;;;;5160697;27;20027;-84
2023/08/23 00:07:24;;;;;;;5.95;4.68;;;16.70;99.90;;;;;;5160272;27;20039;-83
2023/08/23 00:09:50;;;;;;;6.05;5.45;;;16.70;99.90;;;;;;5160268;27;20073;-84
2023/08/23 00:12:16;;;;;;;5.47;4.78;;;16.70;99.90;;;;;;5141721;27;20103;-84
2023/08/23 00:14:42;;;;;;;6.00;5.00;;;16.70;99.90;;;;;;5143415;27;20074;-87
2023/08/23 00:17:08;;;;;;;5.78;5.28;;;16.70;99.90;;;;;;5137686;27;20122;-89
2023/08/23 00:19:34;;;;;;;6.78;6.13;;;16.60;99.90;;;;;;5136814;27;20499;-85
2023/08/23 00:22:00;;;;;;;5.47;4.88;;;16.70;99.90;;;;;;5136925;27;20103;-84
2023/08/23 00:24:25;;;;;;;6.50;5.45;;;16.60;99.90;;;;;;5136204;27;20126;-89
2023/08/23 00:26:54;;;;;;;6.03;5.20;;;16.60;99.90;;;;;;5118160;27;20458;-88
2023/08/23 00:29:20;;;;;;;5.25;4.75;;;16.60;99.90;;;;;;5117294;27;20112;-91
2023/08/23 00:31:45;;;;;;;6.20;4.72;;;16.60;99.90;;;;;;5117791;27;20428;-90
2023/08/23 00:34:11;;;;;;;7.43;5.00;;;16.60;99.90;;;;;;5134780;27;20039;-87
2023/08/23 00:36:37;;;;;;;7.65;5.75;;;16.60;99.90;;;;;;5117896;27;20451;-90
2023/08/23 00:39:02;;;;;;;5.82;4.70;;;16.50;99.90;;;;;;5135345;27;20070;-90
2023/08/23 00:41:28;;;;;;;5.82;5.18;;;16.50;99.90;;;;;;5135680;27;20471;-91
2023/08/23 00:43:54;;;;;;;9.40;5.65;;;16.40;99.90;;;;;;5117052;27;20039;-89
2023/08/23 00:46:20;;;;;;;4.57;4.18;;;16.40;99.90;;;;;;5117280;27;20043;-91
2023/08/23 00:48:47;;;;;;;5.10;4.22;;;16.40;99.90;;;;;;5134978;27;20129;-87
2023/08/23 00:51:13;;;;;;;6.03;5.30;;;16.30;99.90;;;;;;5135191;27;20096;-90
2023/08/23 00:53:39;;;;;;;6.47;4.93;;;16.20;99.90;;;;;;5134935;27;20043;-89
2023/08/23 00:56:05;;;;;;;6.00;4.85;;;16.20;99.90;;;;;;5134987;27;20054;-89
2023/08/23 00:58:32;;;;;;;5.07;4.57;;;16.20;99.90;;;;;;5134895;27;20043;-90
2023/08/23 01:00:58;;;;;;;6.78;5.50;;;16.10;99.90;;;;;;5116153;27;20340;-90
2023/08/23 01:03:23;;;;;;;4.78;3.75;;;16.10;99.90;;;;;;5116057;27;20054;-88
2023/08/23 01:06:07;;;;;;;6.57;5.05;;;16.10;99.90;;;;;;5116188;27;20086;-89
2023/08/23 01:09:00;;;;;;;6.57;5.53;;;16.10;99.90;;;;;;5135300;27;20070;-91
2023/08/23 01:11:44;;;;;;;6.60;5.53;;;16.00;99.90;;;;;;5134599;27;20108;-89
2023/08/23 01:14:36;;;;;;;5.78;5.03;;;16.00;99.90;;;;;;5135053;27;20043;-90
2023/08/23 01:17:03;;;;;;;8.40;5.47;;;16.00;99.90;;;;;;5134623;27;20111;-90
2023/08/23 01:19:45;;;;;;;6.03;5.43;;;16.00;99.90;;;;;;5116393;27;20337;-90
2023/08/23 01:22:16;;;;;;;10.00;5.55;;;15.90;99.90;;;;;;5134392;27;20039;-88
2023/08/23 01:24:42;;;;;;;5.85;4.57;;;15.90;99.90;;;;;;5134483;27;20043;-87
2023/08/23 01:27:08;;;;;;;5.82;4.93;;;15.90;99.90;;;;;;5134355;27;20053;-89
2023/08/23 01:29:33;;;;;;;7.00;5.97;;;15.90;99.90;;;;;;5134212;27;20039;-91
2023/08/23 01:32:22;;;;;;;5.40;4.90;;;15.90;99.90;;;;;;5134530;27;20096;-88
2023/08/23 01:34:56;;;;;;;7.28;5.15;;;15.90;99.90;;;;;;5134383;27;20477;-88
2023/08/23 01:37:23;;;;;;;5.63;4.78;;;15.90;99.90;;;;;;5133941;27;20456;-88
2023/08/23 01:39:52;;;;;;;6.60;4.78;;;15.90;99.90;;;;;;5134319;27;20047;-90
2023/08/23 01:42:20;;;;;;;5.57;4.18;;;15.90;99.90;;;;;;5116490;27;20135;-88
2023/08/23 01:44:46;;;;;;;6.65;4.45;;;15.80;99.90;;;;;;5133022;27;20128;-89
2023/08/23 01:47:11;;;;;;;5.72;4.38;;;15.70;99.90;;;;;;5098753;28;20059;-89
2023/08/23 01:49:37;;;;;;;5.35;4.53;;;15.70;99.90;;;;;;5134356;27;20382;-89
2023/08/23 01:52:03;;;;;;;4.28;3.88;;;15.70;99.90;;;;;;5133867;27;20043;-90
2023/08/23 01:54:29;;;;;;;6.20;4.00;;;15.60;99.90;;;;;;5134284;27;20043;-93
2023/08/23 01:56:54;;;;;;;6.25;3.55;;;15.60;99.90;;;;;;5115496;28;20103;-91
2023/08/23 01:59:20;;;;;;;5.88;4.00;;;15.60;99.90;;;;;;5133915;27;20122;-86
2023/08/23 02:01:45;;;;;;;4.60;3.90;;;15.70;99.90;;;;;;5134018;28;20073;-88
2023/08/23 02:04:12;;;;;;;4.07;3.67;;;15.70;99.90;;;;;;5111898;28;20097;-86
2023/08/23 02:06:38;;;;;;;4.05;3.65;;;15.70;99.90;;;;;;5113126;28;20087;-89
2023/08/23 02:09:04;;;;;;;4.25;3.67;;;15.70;99.90;;;;;;5112951;28;20059;-92
2023/08/23 02:11:30;;;;;;;10.88;4.82;;;15.70;99.90;;;;;;5113172;28;20047;-87
2023/08/23 02:13:55;;;;;;;11.05;4.68;;;15.70;99.90;;;;;;5113262;28;20039;-88
2023/08/23 02:16:21;;;;;;;11.75;4.22;;;15.60;99.90;;;;;;5112950;28;20465;-86
2023/08/23 02:18:47;;;;;;;4.00;3.60;;;15.60;99.90;;;;;;5113126;28;20490;-89
2023/08/23 02:21:12;;;;;;;4.97;4.13;;;15.60;99.90;;;;;;5112282;28;20047;-90
2023/08/23 02:23:38;;;;;;;10.18;4.97;;;15.30;99.90;;;;;;5113354;28;20395;-91
2023/08/23 02:26:04;;;;;;;5.85;4.95;;;15.50;99.90;;;;;;5111602;28;20048;-90
2023/08/23 02:28:29;;;;;;;6.10;4.05;;;15.40;99.90;;;;;;5113213;28;20111;-87
2023/08/23 02:31:01;;;;;;;6.38;4.13;;;15.30;99.90;;;;;;5111838;28;20067;-88
2023/08/23 02:33:27;;;;;;;5.37;4.83;;;15.40;99.90;;;;;;5111817;28;20048;-88
2023/08/23 02:35:53;;;;;;;5.43;4.93;;;15.30;99.90;;;;;;5111939;28;20291;-89
2023/08/23 02:38:18;;;;;;;5.82;3.70;;;15.30;99.90;;;;;;5112942;28;20044;-91
2023/08/23 02:40:44;;;;;;;4.57;3.67;;;15.30;99.90;;;;;;5111349;28;20040;-90
2023/08/23 02:43:10;;;;;;;4.70;3.97;;;15.30;99.90;;;;;;5113129;28;20044;-90
2023/08/23 02:45:40;;;;;;;5.45;3.83;;;15.30;99.90;;;;;;5113208;28;20123;-89
2023/08/23 02:48:10;;;;;;;4.28;3.70;;;15.20;99.90;;;;;;5112869;28;20044;-85
2023/08/23 02:50:36;;;;;;;3.97;3.30;;;15.10;99.90;;;;;;5112771;28;20082;-87
2023/08/23 02:53:02;;;;;;;4.07;3.78;;;15.10;99.90;;;;;;5112701;28;20050;-93
2023/08/23 02:55:28;;;;;;;4.13;3.53;;;15.10;99.90;;;;;;5112393;28;20439;-87
2023/08/23 02:57:54;;;;;;;4.07;3.47;;;15.00;99.90;;;;;;5115004;28;20126;-89
2023/08/23 03:00:20;;;;;;;3.42;3.13;;;15.00;99.90;;;;;;5116625;28;20144;-92
2023/08/23 03:02:45;;;;;;;4.10;3.65;;;15.00;99.90;;;;;;5101651;27;20059;-88
2023/08/23 03:05:11;;;;;;;4.32;3.10;;;15.10;99.90;;;;;;5119716;27;20087;-88
2023/08/23 03:07:37;;;;;;;7.85;3.55;;;15.00;99.90;;;;;;5137071;27;20047;-87
2023/08/23 03:10:02;;;;;;;4.50;3.42;;;15.00;99.90;;;;;;5136807;27;20465;-89
2023/08/23 03:12:28;;;;;;;5.68;4.68;;;15.10;99.90;;;;;;5119003;27;20070;-88
2023/08/23 03:14:54;;;;;;;7.30;4.57;;;15.00;99.90;;;;;;5136816;27;20043;-88
2023/08/23 03:17:19;;;;;;;7.57;4.47;;;15.00;99.90;;;;;;5137057;27;20086;-91
2023/08/23 03:19:45;;;;;;;6.20;4.97;;;15.00;99.90;;;;;;5136883;27;20499;-91
2023/08/23 03:22:11;;;;;;;6.07;4.93;;;15.00;99.90;;;;;;5118053;27;20065;-89
2023/08/23 03:24:36;;;;;;;4.82;4.22;;;15.10;99.90;;;;;;5118056;27;20055;-89
2023/08/23 03:27:02;;;;;;;9.70;4.95;;;15.10;99.90;;;;;;5136466;27;20123;-90
2023/08/23 03:29:28;;;;;;;8.02;4.68;;;15.10;99.90;;;;;;5118225;27;20478;-89
2023/08/23 03:31:54;;;;;;;3.47;3.17;;;15.40;99.90;;;;;;5136515;27;20047;-88
2023/08/23 03:34:19;;;;;;;5.65;4.95;;;15.20;99.90;;;;;;5119101;27;20086;-89
2023/08/23 03:36:45;;;;;;;5.22;4.32;;;15.20;99.90;;;;;;5136479;27;20069;-90
2023/08/23 03:39:11;;;;;;;5.20;4.72;;;15.30;99.90;;;;;;5136118;27;20127;-91
2023/08/23 03:41:36;;;;;;;4.68;4.28;;;15.30;99.90;;;;;;5118486;27;20126;-90
2023/08/23 03:44:02;;;;;;;4.45;3.95;;;15.30;99.90;;;;;;5138226;27;20062;-89
2023/08/23 03:46:28;;;;;;;5.80;4.63;;;15.30;99.90;;;;;;5118002;27;20043;-89
2023/08/23 03:48:56;;;;;;;5.18;4.35;;;15.30;99.90;;;;;;5136404;27;20047;-91
2023/08/23 03:51:22;;;;;;;5.30;4.05;;;15.40;99.90;;;;;;5136200;27;20047;-75
2023/08/23 03:53:47;;;;;;;5.32;4.00;;;15.40;99.90;;;;;;5135905;27;20066;-80
2023/08/23 03:56:13;;;;;;;8.77;5.03;;;15.30;99.90;;;;;;5136174;27;20119;-82
2023/08/23 03:58:39;;;;;;;5.60;4.65;;;15.30;99.90;;;;;;5118307;27;20042;-84
2023/08/23 04:01:04;;;;;;;5.88;4.20;;;15.30;99.90;;;;;;5100564;27;20054;-85
2023/08/23 04:03:30;;;;;;;5.38;4.18;;;15.40;99.90;;;;;;5101219;27;20091;-89
2023/08/23 04:05:56;;;;;;;6.20;5.60;;;15.40;99.90;;;;;;5126600;27;20053;-85
2023/08/23 04:08:21;;;;;;;6.57;5.82;;;15.40;99.90;;;;;;5145585;27;20073;-85
2023/08/23 04:10:48;;;;;;;6.45;4.85;;;15.40;99.90;;;;;;5146248;27;20075;-86
2023/08/23 04:13:14;;;;;;;6.95;6.30;;;15.40;99.90;;;;;;5146257;27;20046;-85
2023/08/23 04:15:44;;;;;;;7.35;6.57;;;15.50;99.90;;;;;;5145883;27;20512;-85
2023/08/23 04:18:10;;;;;;;6.95;6.25;;;15.60;99.90;;;;;;5138366;27;20380;-85
2023/08/23 04:20:37;;;;;;;7.70;6.53;;;15.60;99.90;;;;;;5137660;27;20035;-85
2023/08/23 04:23:03;;;;;;;9.18;6.78;;;15.60;99.90;;;;;;5137620;27;20047;-86
2023/08/23 04:25:29;;;;;;;6.68;5.65;;;15.70;99.90;;;;;;5136761;27;20039;-84
2023/08/23 04:27:55;;;;;;;7.80;6.55;;;15.70;99.90;;;;;;5135350;27;20532;-86
2023/08/23 04:30:23;;;;;;;7.32;6.30;;;15.70;99.90;;;;;;5117400;27;20129;-86
2023/08/23 04:32:49;;;;;;;6.80;6.20;;;15.80;99.90;;;;;;5135081;27;20055;-87
2023/08/23 04:35:15;;;;;;;8.68;7.53;;;15.80;99.90;;;;;;5117000;27;20491;-85
2023/08/23 04:37:41;;;;;;;6.97;5.95;;;15.80;99.90;;;;;;5135073;27;20047;-87
2023/08/23 04:40:07;;;;;;;9.35;6.28;;;15.80;99.90;;;;;;5116856;27;20047;-86
2023/08/23 04:42:33;;;;;;;7.55;6.45;;;15.80;99.90;;;;;;5116912;27;20070;-86
2023/08/23 04:45:00;;;;;;;8.93;8.02;;;15.80;99.90;;;;;;5134994;27;20043;-87
2023/08/23 04:47:30;;;;;;;8.60;7.70;;;15.90;99.90;;;;;;5135322;27;20377;-85
2023/08/23 04:49:56;;;;;;;8.38;7.55;;;15.90;99.90;;;;;;5134568;27;20474;-85
2023/08/23 04:52:21;;;;;;;8.27;7.40;;;15.90;99.90;;;;;;5135314;27;20047;-86
2023/08/23 04:54:47;;;;;;;7.53;6.82;;;15.90;99.90;;;;;;5116866;27;20356;-86
2023/08/23 04:57:13;;;;;;;8.90;7.43;;;16.00;99.90;;;;;;5099438;27;20119;-86
2023/08/23 04:59:39;;;;;;;8.45;7.57;;;16.00;99.90;;;;;;5134431;27;20110;-85
2023/08/23 05:02:04;;;;;;;7.72;6.60;;;16.10;99.90;;;;;;5116609;27;20087;-86
2023/08/23 05:04:30;;;;;;;7.20;6.50;;;16.10;99.90;;;;;;5115394;27;20066;-87
2023/08/23 05:06:56;;;;;;;8.00;5.70;;;16.10;99.90;;;;;;5133835;27;20119;-85
2023/08/23 05:09:22;;;;;;;6.47;5.88;;;16.10;99.90;;;;;;5135116;27;20122;-86
2023/08/23 05:11:48;;;;;;;7.00;6.30;;;16.10;99.90;;;;;;5115749;27;20553;-86
2023/08/23 05:14:13;;;;;;;7.72;7.03;;;16.10;99.90;;;;;;5133980;27;20046;-85
2023/08/23 05:16:39;;;;;;;8.88;7.82;;;16.00;99.90;;;;;;5116011;27;20047;-85
2023/08/23 05:19:05;;;;;;;8.80;7.90;;;16.10;99.90;;;;;;5115635;27;20082;-85
2023/08/23 05:21:30;;;;;;;7.95;7.00;;;16.10;99.90;;;;;;5115996;27;20047;-85
2023/08/23 05:23:56;;;;;;;8.10;6.80;;;16.10;99.90;;;;;;5133869;27;20043;-84
2023/08/23 05:26:21;;;;;;;12.52;7.55;;;16.10;99.90;;;;;;5115927;27;20039;-85
2023/08/23 05:28:47;;;;;;;10.35;8.45;;;16.10;99.90;;;;;;5134649;27;20042;-85
2023/08/23 05:31:15;;;;;;;10.88;7.50;;;16.20;99.90;;;;;;5134011;27;20442;-85
2023/08/23 05:33:42;;;;;;;7.85;7.03;;;16.20;99.90;;;;;;5134381;27;20047;-86
2023/08/23 05:36:07;;;;;;;11.73;8.13;;;16.40;99.90;;;;;;5099508;27;20055;-85
2023/08/23 05:38:33;;;;;;;8.93;8.00;;;16.50;99.90;;;;;;5133868;27;20050;-84
2023/08/23 05:40:59;;;;;;;9.60;7.70;;;16.50;99.90;;;;;;5134366;27;20107;-86
2023/08/23 05:43:25;;;;;;;9.52;8.25;;;16.60;99.90;;;;;;5133818;27;20047;-86
2023/08/23 05:45:51;;;;;;;9.75;8.20;;;16.70;99.90;;;;;;5134043;27;20051;-84
2023/08/23 05:48:17;;;;;;;11.85;9.68;;;16.70;99.90;;;;;;5115687;27;20594;-86
2023/08/23 05:50:43;;;;;;;12.15;9.27;;;16.70;99.90;;;;;;5133766;27;20070;-84
2023/08/23 05:53:18;;;;;;;13.00;9.80;;;16.70;99.90;;;;;;5115407;27;20043;-86
2023/08/23 05:55:48;;;;;;;12.90;9.00;;;16.70;99.90;;;;;;5133636;27;20099;-85
2023/08/23 05:58:16;;;;;;;11.98;8.95;;;16.70;99.90;;;;;;5133504;27;20051;-85
2023/08/23 06:00:42;;;;;;;10.90;9.75;;;16.70;99.90;;;;;;5133886;27;20043;-86
2023/08/23 06:03:08;;;;;;;10.90;9.43;;;16.70;99.90;;;;;;5133176;28;20487;-85
2023/08/23 06:05:34;;;;;;;11.43;9.70;;;16.80;99.90;;;;;;5134122;28;20062;-86
2023/08/23 06:08:02;;;;;;;11.15;10.00;;;16.90;99.90;;;;;;5115522;28;20546;-84
2023/08/23 06:10:28;;;;;;;13.93;11.35;;;17.00;99.90;;;;;;5115787;28;20139;-84
2023/08/23 06:12:53;;;;;;;13.15;10.77;;;17.10;99.90;;;;;;5134462;28;20109;-84
2023/08/23 06:15:19;;;;;;;15.10;11.52;;;17.20;99.90;;;;;;5115333;28;20069;-84
2023/08/23 06:17:44;;;;;;;15.10;12.25;;;17.20;99.90;;;;;;5133960;28;20054;-84
2023/08/23 06:20:10;;;;;;;13.45;11.35;;;17.20;99.90;;;;;;5134003;28;20131;-87
2023/08/23 06:22:36;;;;;;;14.65;12.00;;;17.20;99.90;;;;;;5115962;28;20058;-84
2023/08/23 06:25:02;;;;;;;14.77;12.70;;;17.20;99.90;;;;;;5133718;28;20046;-85
2023/08/23 06:27:28;;;;;;;16.48;13.95;;;17.20;99.90;;;;;;5133761;28;20043;-86
2023/08/23 06:29:53;;;;;;;13.55;11.15;;;17.30;99.90;;;;;;5115710;28;20049;-85
2023/08/23 06:32:19;;;;;;;17.38;12.85;;;17.30;99.90;;;;;;5136188;27;20039;-85
2023/08/23 06:34:45;;;;;;;15.85;13.73;;;17.40;99.90;;;;;;5139180;27;20106;-86
2023/08/23 06:37:11;;;;;;;17.75;12.88;;;17.40;99.90;;;;;;5159917;27;20027;-86
2023/08/23 06:39:36;;;;;;;16.98;12.20;;;17.50;99.90;;;;;;5141429;27;20043;-86
2023/08/23 06:42:02;;;;;;;32.22;13.40;;;17.50;99.90;;;;;;5119775;27;20054;-85
2023/08/23 06:44:30;;;;;;;15.88;12.82;;;17.60;99.90;;;;;;5119675;27;20050;-86
2023/08/23 06:46:56;;;;;;;16.88;13.15;;;17.70;99.90;;;;;;5118765;27;20051;-86
2023/08/23 06:49:21;;;;;;;17.67;13.55;;;17.80;99.90;;;;;;5137791;27;20099;-84
2023/08/23 06:51:47;;;;;;;16.55;12.63;;;18.00;99.90;;;;;;5136909;27;20464;-84
2023/08/23 06:54:13;;;;;;;15.27;12.75;;;18.10;99.90;;;;;;5136935;27;20051;-86
2023/08/23 06:56:38;;;;;;;16.67;12.02;;;18.30;99.90;;;;;;5136925;27;20047;-85
2023/08/23 06:59:04;;;;;;;13.65;11.88;;;18.50;99.90;;;;;;5118753;27;20122;-84
2023/08/23 07:01:30;;;;;;;15.50;13.15;;;18.60;99.90;;;;;;5136485;27;20051;-85
2023/08/23 07:03:55;;;;;;;14.32;11.30;;;18.70;99.90;;;;;;5118756;27;20046;-85
2023/08/23 07:06:21;;;;;;;15.30;11.60;;;18.90;99.90;;;;;;5114824;28;20484;-87
2023/08/23 07:08:46;;;;;;;14.07;9.77;;;19.10;99.90;;;;;;5116523;28;20509;-85
2023/08/23 07:11:12;;;;;;;15.73;11.05;;;20.00;99.90;;;;;;5098192;28;20074;-85
2023/08/23 07:13:39;;;;;;;13.75;10.10;;;21.30;99.90;;;;;;5116096;28;20126;-86
2023/08/23 07:16:05;;;;;;;13.13;9.30;;;22.30;99.90;;;;;;5116023;28;20044;-84
2023/08/23 07:18:31;;;;;;;14.10;9.10;;;23.20;99.90;;;;;;5115940;28;20447;-86
2023/08/23 07:20:57;;;;;;;13.27;9.70;;;24.00;99.90;;;;;;5116168;28;20135;-85
2023/08/23 07:23:24;;;;;;;11.93;8.95;;;24.70;99.90;;;;;;5115917;28;20043;-85
2023/08/23 07:25:50;;;;;;;9.55;8.10;;;25.60;99.90;;;;;;5115831;28;20172;-84
2023/08/23 07:28:15;;;;;;;10.25;7.85;;;26.00;99.90;;;;;;5116278;27;20093;-84
2023/08/23 07:30:50;;;;;;;8.63;7.65;;;25.80;99.90;;;;;;5115837;28;20044;-84
2023/08/23 07:33:16;;;;;;;9.48;7.20;;;25.20;99.90;;;;;;5114760;28;20506;-86
2023/08/23 07:35:42;;;;;;;7.97;6.35;;;25.50;99.90;;;;;;5114606;28;20043;-85
2023/08/23 07:38:07;;;;;;;6.15;5.55;;;26.00;99.90;;;;;;5116157;28;20047;-84
2023/08/23 07:40:38;;;;;;;5.10;4.32;;;26.80;99.90;;;;;;5115749;28;20054;-85
2023/08/23 07:43:04;;;;;;;6.47;4.15;;;;;;;;;;5113375;28;20061;-87
2023/08/23 07:45:30;;;;;;;7.15;4.60;;;26.50;98.40;;;;;;5115560;28;20122;-87
2023/08/23 07:47:55;;;;;;;5.47;4.93;;;26.50;99.90;;;;;;5115438;28;20105;-85
2023/08/23 07:50:21;;;;;;;4.60;3.92;;;25.90;99.90;;;;;;5114945;28;20078;-84
2023/08/23 07:52:47;;;;;;;4.40;4.00;;;25.50;99.90;;;;;;5115447;28;20040;-85
2023/08/23 07:55:12;;;;;;;6.22;5.07;;;25.70;99.90;;;;;;5114627;28;20157;-85
2023/08/23 07:57:38;;;;;;;5.15;4.05;;;26.10;99.90;;;;;;5115947;28;20176;-86
2023/08/23 08:00:04;;;;;;;6.65;4.30;;;26.70;99.90;;;;;;5097628;28;20496;-85
2023/08/23 08:02:31;;;;;;;4.53;3.70;;;27.40;99.90;;;;;;5116047;28;20090;-86
2023/08/23 08:04:57;;;;;;;4.05;3.65;;;26.90;99.90;;;;;;5115823;27;20056;-87
2023/08/23 08:07:22;;;;;;;4.65;3.10;;;27.60;99.90;;;;;;5143746;27;20051;-84
2023/08/23 08:09:48;;;;;;;3.30;3.00;;;28.60;99.20;;;;;;5146862;27;20043;-86
2023/08/23 08:12:14;;;;;;;2.92;2.30;;;27.90;98.30;;;;;;5128831;27;20050;-86
2023/08/23 08:14:39;;;;;;;3.05;2.55;;;27.60;98.60;;;;;;5146317;27;20075;-86
2023/08/23 08:17:05;;;;;;;3.00;2.70;;;27.90;98.50;;;;;;5146162;27;20046;-86
2023/08/23 08:19:31;;;;;;;4.78;2.42;;;28.20;97.90;;;;;;5122069;27;20071;-86
2023/08/23 08:21:57;;;;;;;3.88;2.10;;;28.60;96.80;;;;;;5136411;27;20140;-85
2023/08/23 08:24:23;;;;;;;3.08;1.75;;;29.30;97.30;;;;;;5139738;27;20043;-86
2023/08/23 08:26:48;;;;;;;3.90;2.10;;;29.80;96.30;;;;;;5120561;27;20464;-87
2023/08/23 08:29:14;;;;;;;3.42;2.63;;;29.70;95.70;;;;;;5135796;27;20054;-85
2023/08/23 08:31:40;;;;;;;5.15;2.78;;;30.00;95.20;;;;;;5135131;27;20055;-84
2023/08/23 08:34:06;;;;;;;5.35;2.60;;;30.30;94.80;;;;;;5116680;27;20035;-86
2023/08/23 08:36:32;;;;;;;3.03;2.72;;;30.50;94.70;;;;;;5135255;27;20047;-86
2023/08/23 08:38:57;;;;;;;3.20;2.20;;;30.80;94.20;;;;;;5134967;27;20053;-88
2023/08/23 08:41:23;;;;;;;3.38;2.42;;;31.20;94.00;;;;;;5135297;27;20051;-87
2023/08/23 08:43:50;;;;;;;3.58;2.85;;;31.10;93.60;;;;;;5116708;27;20532;-86
2023/08/23 08:46:16;;;;;;;3.45;2.33;;;31.60;93.10;;;;;;5116479;27;20414;-86
2023/08/23 08:48:42;;;;;;;4.32;2.60;;;32.10;93.20;;;;;;5117265;27;20118;-87
2023/08/23 08:51:11;;;;;;;2.92;1.92;;;32.00;92.90;;;;;;5099093;27;20392;-87
2023/08/23 08:53:38;;;;;;;5.25;2.58;;;32.20;92.90;;;;;;5116175;27;20051;-86
2023/08/23 08:56:05;;;;;;;4.40;2.05;;;32.40;92.70;;;;;;5134015;27;20472;-86
2023/08/23 08:58:32;;;;;;;3.67;2.50;;;32.30;92.70;;;;;;5135007;27;20043;-87
2023/08/23 09:01:00;;;;;;;2.13;1.92;;;31.50;92.30;;;;;;5116247;27;20088;-82
2023/08/23 09:03:26;;;;;;;4.22;2.67;;;31.20;92.40;;;;;;5134326;27;20480;-88
2023/08/23 09:05:53;;;;;;;5.38;2.25;;;31.50;92.50;;;;;;5133992;27;20183;-88
2023/08/23 09:08:19;;;;;;;3.22;2.20;;;31.50;92.20;;;;;;5134460;27;20103;-83
2023/08/23 09:10:45;;;;;;;4.20;2.60;;;31.90;92.20;;;;;;5134343;27;20461;-87
2023/08/23 09:13:10;;;;;;;4.03;2.08;;;31.70;91.70;;;;;;5115829;27;20047;-86
2023/08/23 09:15:36;;;;;;;4.43;2.20;;;31.30;91.40;;;;;;5134305;27;20043;-88
2023/08/23 09:18:02;;;;;;;2.67;2.00;;;31.20;91.70;;;;;;5098806;27;20043;-85
2023/08/23 09:20:28;;;;;;;2.58;2.38;;;31.50;91.50;;;;;;5134180;27;20107;-88
2023/08/23 09:22:55;;;;;;;4.05;2.35;;;31.60;91.20;;;;;;5134072;27;20042;-86
2023/08/23 09:25:23;;;;;;;2.65;1.75;;;31.60;91.30;;;;;;5133847;27;20039;-87
2023/08/23 09:27:48;;;;;;;3.92;2.33;;;31.40;91.60;;;;;;5115992;27;20046;-87
2023/08/23 09:30:15;;;;;;;2.75;2.03;;;30.50;91.30;;;;;;5115639;27;20043;-83
2023/08/23 09:32:43;;;;;;;5.68;2.78;;;30.70;90.90;;;;;;5134024;27;20047;-79
2023/08/23 09:35:14;;;;;;;3.35;2.05;;;30.80;91.60;;;;;;5115571;27;20094;-85
2023/08/23 09:37:44;;;;;;;5.47;2.70;;;31.30;91.40;;;;;;5134041;27;20043;-85
2023/08/23 09:40:25;;;;;;;1.60;1.50;;;31.70;90.00;;;;;;5133694;27;20078;-85
2023/08/23 09:42:51;;;;;;;3.00;2.38;;;32.00;89.00;;;;;;5133954;27;20055;-84
2023/08/23 09:45:20;;;;;;;3.78;2.17;;;31.90;90.80;;;;;;5133838;27;20047;-85
2023/08/23 09:47:51;;;;;;;4.55;2.33;;;31.80;90.70;;;;;;5134152;27;20131;-88
2023/08/23 09:50:22;;;;;;;5.72;2.40;;;31.40;90.00;;;;;;5133892;27;20103;-85
2023/08/23 09:52:55;;;;;;;4.13;2.80;;;31.00;90.70;;;;;;5115198;28;20050;-85
2023/08/23 09:55:22;;;;;;;4.88;2.60;;;30.40;90.90;;;;;;5133638;27;20051;-86
2023/08/23 09:57:48;;;;;;;6.43;3.08;;;29.80;91.20;;;;;;5133588;27;20043;-86
2023/08/23 10:00:15;;;;;;;5.07;2.72;;;29.30;91.60;;;;;;5115430;27;20120;-83
2023/08/23 10:02:42;;;;;;;5.25;3.10;;;28.70;91.60;;;;;;5133285;27;20039;-87
2023/08/23 10:05:11;;;;;;;5.45;3.45;;;28.20;92.30;;;;;;5133090;27;20590;-85
2023/08/23 10:07:39;;;;;;;5.63;3.40;;;27.60;92.60;;;;;;5132437;28;20485;-87
2023/08/23 10:10:06;;;;;;;4.57;3.15;;;27.70;92.80;;;;;;5133414;28;20039;-82
2023/08/23 10:12:34;;;;;;;4.90;3.90;;;27.90;93.20;;;;;;5134038;28;20050;-88
2023/08/23 10:15:02;;;;;;;3.78;3.25;;;28.20;93.10;;;;;;5115528;28;20047;-84
2023/08/23 10:17:29;;;;;;;5.47;3.72;;;28.90;92.90;;;;;;5133777;28;20119;-86
2023/08/23 10:19:55;;;;;;;5.13;3.10;;;29.80;92.60;;;;;;5115751;28;20078;-83
2023/08/23 10:22:23;;;;;;;6.38;2.92;;;30.50;92.10;;;;;;5133523;28;20409;-85
2023/08/23 10:24:50;;;;;;;5.80;2.95;;;30.90;91.90;;;;;;5133234;28;20051;-85
2023/08/23 10:27:17;;;;;;;4.32;3.13;;;30.30;92.10;;;;;;5133331;28;20514;-84
2023/08/23 10:29:42;;;;;;;6.53;3.28;;;29.80;92.40;;;;;;5132992;28;20434;-85
2023/08/23 10:32:10;;;;;;;4.30;2.92;;;30.40;92.50;;;;;;5115186;28;20050;-88
2023/08/23 10:34:38;;;;;;;4.97;2.90;;;30.70;92.10;;;;;;5133177;28;20125;-85
2023/08/23 10:37:14;;;;;;;3.40;2.72;;;30.40;91.90;;;;;;5133348;28;20054;-84
2023/08/23 10:39:50;;;;;;;3.90;2.97;;;30.30;91.60;;;;;;5133067;28;20042;-86
2023/08/23 10:42:17;;;;;;;4.00;3.33;;;29.70;92.10;;;;;;5114965;28;20051;-85
2023/08/23 10:45:04;;;;;;;3.65;3.35;;;29.60;92.50;;;;;;5114655;28;20047;-85
2023/08/23 10:47:35;;;;;;;5.38;3.67;;;30.40;92.20;;;;;;5133072;28;20078;-84
2023/08/23 10:50:03;;;;;;;4.68;3.25;;;30.90;91.80;;;;;;5133595;28;20098;-85
2023/08/23 10:52:30;;;;;;;3.47;3.15;;;31.40;91.80;;;;;;5132977;28;20050;-83
2023/08/23 10:54:57;;;;;;;3.95;3.10;;;31.20;91.70;;;;;;5133084;28;20103;-85
2023/08/23 10:57:22;;;;;;;6.20;3.20;;;31.20;91.80;;;;;;5115439;28;20107;-86
2023/08/23 10:59:48;;;;;;;5.65;3.80;;;30.80;92.10;;;;;;5114763;28;20047;-86
2023/08/23 11:02:15;;;;;;;6.65;3.63;;;30.20;92.20;;;;;;5133218;28;20080;-85
2023/08/23 11:04:42;;;;;;;4.63;4.18;;;29.80;92.40;;;;;;5132810;28;20493;-81
2023/08/23 11:07:09;;;;;;;5.80;3.53;;;29.30;92.40;;;;;;5132693;28;20055;-86
2023/08/23 11:09:35;;;;;;;3.30;2.95;;;28.80;92.40;;;;;;5132787;28;20044;-88
2023/08/23 11:12:04;;;;;;;5.57;3.72;;;29.00;92.30;;;;;;5133209;28;20046;-85
2023/08/23 11:14:29;;;;;;;5.15;3.90;;;28.90;92.10;;;;;;5132792;28;20047;-85
2023/08/23 11:16:55;;;;;;;5.13;3.45;;;28.90;92.50;;;;;;5132928;27;20049;-88
2023/08/23 11:19:21;;;;;;;9.77;4.22;;;28.70;92.70;;;;;;5118168;27;20111;-86
2023/08/23 11:21:47;;;;;;;9.85;6.32;;;28.70;92.90;;;;;;5136740;27;20054;-86
2023/08/23 11:24:13;;;;;;;5.65;3.70;;;28.60;92.90;;;;;;5136218;27;20047;-84
2023/08/23 11:26:39;;;;;;;3.47;3.17;;;28.30;92.70;;;;;;5136236;27;20126;-86
2023/08/23 11:29:05;;;;;;;4.53;2.65;;;28.00;92.30;;;;;;5118877;27;20405;-84
2023/08/23 11:31:35;;;;;;;4.22;3.80;;;27.60;92.50;;;;;;5100872;27;20088;-85
2023/08/23 11:34:08;;;;;;;5.03;4.05;;;27.40;92.70;;;;;;5136080;27;20055;-83
2023/08/23 11:36:37;;;;;;;9.35;4.72;;;27.10;93.00;;;;;;5136534;27;20345;-87
2023/08/23 11:39:06;;;;;;;5.00;4.47;;;27.00;93.40;;;;;;5136252;27;20072;-84
2023/08/23 11:41:33;;;;;;;7.18;5.30;;;27.10;93.70;;;;;;5136491;27;20160;-85
2023/08/23 11:44:06;;;;;;;6.50;5.32;;;27.10;94.00;;;;;;5136195;27;20124;-85
2023/08/23 11:46:40;;;;;;;8.45;5.55;;;27.00;94.00;;;;;;5117790;27;20478;-86
2023/08/23 11:49:07;;;;;;;7.55;5.13;;;26.70;94.10;;;;;;5136003;27;20118;-86
2023/08/23 11:51:53;;;;;;;8.57;6.00;;;26.70;94.30;;;;;;5136335;27;20031;-86
2023/08/23 11:54:22;;;;;;;5.53;4.07;;;26.60;94.60;;;;;;5136216;27;20047;-86
2023/08/23 11:56:47;;;;;;;8.77;3.72;;;26.70;94.50;;;;;;5136421;27;20054;-86
2023/08/23 11:59:14;;;;;;;5.57;4.72;;;27.00;94.40;;;;;;5135982;27;20051;-88
2023/08/23 12:01:42;;;;;;;5.47;4.07;;;27.10;94.30;;;;;;5118550;27;20074;-84
2023/08/23 12:04:10;;;;;;;7.45;5.18;;;27.20;94.40;;;;;;5136278;27;20108;-81
2023/08/23 12:06:36;;;;;;;4.72;4.25;;;27.00;94.50;;;;;;5136069;27;20116;-86
2023/08/23 12:09:03;;;;;;;4.88;3.00;;;27.00;94.50;;;;;;5141753;27;20054;-86
2023/08/23 12:11:29;;;;;;;7.40;3.00;;;27.10;94.30;;;;;;5145461;27;20060;-86
2023/08/23 12:13:55;;;;;;;4.85;2.70;;;27.20;93.40;;;;;;5144231;27;20047;-87
2023/08/23 12:16:21;;;;;;;6.97;3.35;;;27.30;93.30;;;;;;5141436;27;20045;-83
2023/08/23 12:18:48;;;;;;;4.10;3.05;;;27.30;93.50;;;;;;5140084;27;20050;-87
2023/08/23 12:21:15;;;;;;;5.55;2.30;;;27.30;93.30;;;;;;5140366;27;20050;-83
2023/08/23 12:23:41;;;;;;;4.13;2.47;;;27.10;92.90;;;;;;5136217;27;20049;-84
2023/08/23 12:26:06;;;;;;;4.30;3.25;;;27.20;92.90;;;;;;5135831;27;20126;-84
2023/08/23 12:28:32;;;;;;;7.57;2.63;;;27.20;92.90;;;;;;5134916;27;20090;-84
2023/08/23 12:30:58;;;;;;;4.32;2.78;;;27.20;93.10;;;;;;5116540;27;20072;-84
2023/08/23 12:33:23;;;;;;;4.10;2.13;;;27.50;93.30;;;;;;5135134;27;20047;-86
2023/08/23 12:35:49;;;;;;;2.70;2.13;;;27.60;92.50;;;;;;5117242;27;20103;-84
2023/08/23 12:38:15;;;;;;;2.92;2.60;;;27.70;92.60;;;;;;5099772;27;20496;-84
2023/08/23 12:40:41;;;;;;;3.33;1.98;;;27.80;92.10;;;;;;5135017;27;20374;-85
2023/08/23 12:43:07;;;;;;;5.78;2.40;;;27.90;91.80;;;;;;5134758;27;20078;-84